createdAt,value
2022-11-04T00:05:01.002Z,11.10
2022-11-04T00:10:02.885Z,9.90
2022-11-04T00:15:25.558Z,9.00
2022-11-04T00:20:46.115Z,8.20
2022-11-04T00:26:06.520Z,8.10
2022-11-04T00:31:28.678Z,8.30
2022-11-04T00:36:30.500Z,7.70
2022-11-04T00:41:32.392Z,7.70
2022-11-04T00:46:34.837Z,7.00
2022-11-04T00:51:36.700Z,8.40
2022-11-04T00:56:39.575Z,8.20
2022-11-04T01:01:42.218Z,7.40
2022-11-04T01:06:44.695Z,7.80
2022-11-04T01:11:46.648Z,7.30
2022-11-04T01:16:52.026Z,7.90
2022-11-04T01:21:53.908Z,7.20
2022-11-04T01:26:55.855Z,6.40
2022-11-04T01:31:57.776Z,7.90
2022-11-04T01:36:59.627Z,7.00
2022-11-04T01:42:01.617Z,7.00
2022-11-04T01:47:04.618Z,7.00
2022-11-04T01:52:15.410Z,6.50
2022-11-04T01:57:25.273Z,6.40
2022-11-04T02:02:27.357Z,7.70
2022-11-04T02:07:29.949Z,6.30
2022-11-04T02:12:50.133Z,7.30
2022-11-04T02:23:48.800Z,7.00
2022-11-04T02:29:18.842Z,8.00
2022-11-04T02:34:26.010Z,8.10
2022-11-04T02:39:51.344Z,7.80
2022-11-04T02:45:21.937Z,7.50
2022-11-04T02:50:33.675Z,7.10
2022-11-04T02:55:43.303Z,7.60
2022-11-04T03:00:47.097Z,8.50
2022-11-04T03:05:52.709Z,7.90
2022-11-04T03:10:59.427Z,7.10
2022-11-04T03:16:09.449Z,8.00
2022-11-04T03:21:15.529Z,6.90
2022-11-04T03:26:32.710Z,7.60
2022-11-04T03:31:54.527Z,7.90
2022-11-04T03:36:57.312Z,6.30
2022-11-04T03:42:20.338Z,8.00
2022-11-04T03:47:25.982Z,7.90
2022-11-04T03:52:27.866Z,8.10
2022-11-04T03:57:51.240Z,7.80
2022-11-04T04:03:06.734Z,8.60
2022-11-04T04:08:34.607Z,8.70
2022-11-04T04:13:36.551Z,7.40
2022-11-04T04:18:55.785Z,7.30
2022-11-04T04:24:24.678Z,8.10
2022-11-04T04:29:29.513Z,6.70
2022-11-04T04:34:33.557Z,6.80
2022-11-04T04:40:00.839Z,6.50
2022-11-04T04:45:05.580Z,7.10
2022-11-04T04:50:09.195Z,7.10
2022-11-04T04:55:12.535Z,8.10
2022-11-04T05:00:19.986Z,7.60
2022-11-04T05:05:21.976Z,7.50
2022-11-04T05:10:26.089Z,9.10
2022-11-04T05:15:31.406Z,10.10
2022-11-04T05:20:34.562Z,9.20
2022-11-04T05:25:36.544Z,8.80
2022-11-04T05:30:38.473Z,9.60
2022-11-04T05:35:40.443Z,9.90
2022-11-04T05:40:42.341Z,10.10
2022-11-04T05:45:44.144Z,10.30
2022-11-04T05:50:45.987Z,12.80
2022-11-04T05:55:47.817Z,21.50
2022-11-04T06:00:49.679Z,20.30
2022-11-04T06:05:51.510Z,19.00
2022-11-04T06:10:53.411Z,23.60
2022-11-04T06:15:55.263Z,13.80
2022-11-04T06:21:15.377Z,9.70
2022-11-04T06:26:18.313Z,8.60
2022-11-04T06:31:20.626Z,9.00
2022-11-04T06:36:22.485Z,8.80
2022-11-04T06:41:25.113Z,8.40
2022-11-04T06:46:40.256Z,8.30
2022-11-04T06:51:42.162Z,8.50
2022-11-04T06:56:45.075Z,9.00
2022-11-04T07:01:49.316Z,9.60
2022-11-04T07:06:51.302Z,8.00
2022-11-04T07:11:53.104Z,9.30
2022-11-04T07:16:54.926Z,9.80
2022-11-04T07:21:58.019Z,9.00
2022-11-04T07:32:07.601Z,6.90
2022-11-04T07:37:09.851Z,9.10
2022-11-04T07:42:11.743Z,8.50
2022-11-04T07:47:14.601Z,8.30
2022-11-04T07:52:16.830Z,8.30
2022-11-04T07:57:18.681Z,8.90
2022-11-04T08:02:25.786Z,8.30
2022-11-04T08:07:29.561Z,7.60
2022-11-04T08:12:32.495Z,7.60
2022-11-04T08:17:34.369Z,7.50
2022-11-04T08:22:36.555Z,6.60
2022-11-04T08:27:38.368Z,6.30
2022-11-04T08:32:40.312Z,6.80
2022-11-04T08:37:42.197Z,6.60
2022-11-04T08:42:44.013Z,6.40
2022-11-04T08:47:45.818Z,6.00
2022-11-04T08:52:48.257Z,6.00
2022-11-04T08:57:51.288Z,6.30
2022-11-04T09:02:53.187Z,6.30
2022-11-04T09:07:55.672Z,6.10
2022-11-04T09:12:57.570Z,6.10
2022-11-04T09:17:59.530Z,5.90
2022-11-04T09:23:01.564Z,6.20
2022-11-04T09:28:04.783Z,6.30
2022-11-04T09:33:06.796Z,6.40
2022-11-04T09:38:08.964Z,6.00
2022-11-04T09:43:39.730Z,5.80
2022-11-04T09:48:53.808Z,5.80
2022-11-04T09:54:02.832Z,6.60
2022-11-04T09:59:06.445Z,5.60
2022-11-04T10:04:33.358Z,5.90
2022-11-04T10:09:43.380Z,5.90
2022-11-04T10:20:18.072Z,6.60
2022-11-04T10:25:28.179Z,6.40
2022-11-04T10:35:42.803Z,6.30
2022-11-04T10:40:51.333Z,6.60
2022-11-04T10:46:22.659Z,8.90
2022-11-04T10:51:24.776Z,6.90
2022-11-04T10:56:42.600Z,7.70
2022-11-04T11:01:56.805Z,6.60
2022-11-04T11:07:00.594Z,8.30
2022-11-04T11:12:44.122Z,7.90
2022-11-04T11:17:34.488Z,8.20
2022-11-04T11:22:41.704Z,10.00
2022-11-04T11:27:49.938Z,7.90
2022-11-04T11:33:01.397Z,6.50
2022-11-04T11:38:06.055Z,8.60
2022-11-04T11:43:21.320Z,7.80
2022-11-04T11:48:29.978Z,8.70
2022-11-04T11:53:34.473Z,8.70
2022-11-04T12:09:42.077Z,6.90
2022-11-04T12:15:07.081Z,9.40
2022-11-04T12:21:00.115Z,8.80
2022-11-04T12:26:20.256Z,6.90
2022-11-04T12:31:45.363Z,7.60
2022-11-04T12:37:01.928Z,9.50
2022-11-04T12:42:20.527Z,8.10
2022-11-04T12:47:38.828Z,7.40
2022-11-04T12:52:54.264Z,9.50
2022-11-04T12:58:17.559Z,8.50
2022-11-04T13:03:30.320Z,7.10
2022-11-04T13:08:41.981Z,7.90
2022-11-04T13:13:44.106Z,8.40
2022-11-04T13:18:48.026Z,8.70
2022-11-04T13:23:58.144Z,8.60
2022-11-04T13:29:09.121Z,54.90
2022-11-04T13:34:48.051Z,11.60
2022-11-04T13:39:57.718Z,8.90
2022-11-04T13:45:14.955Z,10.80
2022-11-04T13:50:37.016Z,8.40
2022-11-04T13:55:50.393Z,7.80
2022-11-04T14:01:14.010Z,9.10
2022-11-04T14:06:16.040Z,9.40
2022-11-04T14:11:17.843Z,8.90
2022-11-04T14:16:25.485Z,8.50
2022-11-04T14:21:29.524Z,17.00
2022-11-04T14:26:48.616Z,10.60
2022-11-04T14:31:53.183Z,10.20
2022-11-04T14:37:05.455Z,9.10
2022-11-04T14:42:14.004Z,10.80
2022-11-04T14:47:22.055Z,10.90
2022-11-04T14:52:35.165Z,12.00
2022-11-04T14:57:42.456Z,10.70
2022-11-04T15:02:44.350Z,9.60
2022-11-04T15:07:46.239Z,9.90
2022-11-04T15:12:52.036Z,9.90
2022-11-04T15:18:01.843Z,8.20
2022-11-04T15:23:06.859Z,9.60
2022-11-04T15:28:18.061Z,10.40
2022-11-04T15:33:20.012Z,12.20
2022-11-04T15:38:24.324Z,8.20
2022-11-04T15:43:26.234Z,14.60
2022-11-04T15:48:33.818Z,13.30
2022-11-04T15:53:50.573Z,16.70
2022-11-04T15:58:54.536Z,15.50
2022-11-04T16:04:00.470Z,17.20
2022-11-04T16:09:25.940Z,17.90
2022-11-04T16:14:30.169Z,18.20
2022-11-04T16:19:32.491Z,20.80
2022-11-04T16:24:37.987Z,21.00
2022-11-04T16:29:45.213Z,30.90
2022-11-04T16:34:52.362Z,28.40
2022-11-04T16:39:54.403Z,26.30
2022-11-04T16:45:02.640Z,28.50
2022-11-04T16:50:13.225Z,27.10
2022-11-04T16:55:15.941Z,28.70
2022-11-04T17:00:20.963Z,28.10
2022-11-04T17:05:23.106Z,25.90
2022-11-04T17:10:27.965Z,27.10
2022-11-04T17:15:29.783Z,24.70
2022-11-04T17:20:32.043Z,26.60
2022-11-04T17:25:33.897Z,27.40
2022-11-04T17:30:36.077Z,24.60
2022-11-04T17:35:38.419Z,24.80
2022-11-04T17:40:59.182Z,23.20
2022-11-04T17:46:20.956Z,21.90
2022-11-04T17:51:23.114Z,25.40
2022-11-04T17:56:25.644Z,26.20
2022-11-04T18:01:28.148Z,36.80
2022-11-04T18:06:32.593Z,34.90
2022-11-04T18:11:53.123Z,33.20
2022-11-04T18:16:55.110Z,33.80
2022-11-04T18:21:57.407Z,37.50
2022-11-04T18:26:59.862Z,34.70
2022-11-04T18:32:01.778Z,34.30
2022-11-04T18:37:03.794Z,33.80
2022-11-04T18:42:05.702Z,34.80
2022-11-04T18:47:07.495Z,32.20
2022-11-04T18:52:09.330Z,36.20
2022-11-04T18:57:12.187Z,40.20
2022-11-04T19:02:19.839Z,35.80
2022-11-04T19:07:21.665Z,36.20
2022-11-04T19:12:42.100Z,32.80
2022-11-04T19:17:44.035Z,33.80
2022-11-04T19:22:46.129Z,30.30
2022-11-04T19:28:00.069Z,31.30
2022-11-04T19:33:10.886Z,30.80
2022-11-04T19:38:12.986Z,28.70
2022-11-04T19:43:15.199Z,25.70
2022-11-04T19:48:18.976Z,26.00
2022-11-04T19:53:21.134Z,23.40
2022-11-04T19:58:23.401Z,25.70
2022-11-04T20:03:25.223Z,23.20
2022-11-04T20:08:27.230Z,20.50
2022-11-04T20:13:44.428Z,18.40
2022-11-04T20:18:50.697Z,16.70
2022-11-04T20:23:57.613Z,14.60
2022-11-04T20:29:00.448Z,16.20
2022-11-04T20:34:05.114Z,21.30
2022-11-04T20:39:18.329Z,24.10
2022-11-04T20:44:20.295Z,24.10
2022-11-04T20:49:22.283Z,23.80
2022-11-04T20:54:24.187Z,21.40
2022-11-04T20:59:27.617Z,20.50
2022-11-04T21:04:34.799Z,19.60
2022-11-04T21:09:37.955Z,20.20
2022-11-04T21:14:39.827Z,22.10
2022-11-04T21:19:41.730Z,23.10
2022-11-04T21:24:43.569Z,21.00
2022-11-04T21:29:45.578Z,23.20
2022-11-04T21:34:47.430Z,22.80
2022-11-04T21:39:49.240Z,20.10
2022-11-04T21:44:51.049Z,19.10
2022-11-04T21:49:52.864Z,19.90
2022-11-04T21:54:54.633Z,18.40
2022-11-04T21:59:56.428Z,19.00
2022-11-04T22:04:58.242Z,17.70
2022-11-04T22:10:00.095Z,17.10
2022-11-04T22:15:09.094Z,14.20
2022-11-04T22:20:11.293Z,8.70
2022-11-04T22:25:13.159Z,6.80
2022-11-04T22:30:15.009Z,5.10
2022-11-04T22:35:17.079Z,4.90
2022-11-04T22:40:18.997Z,3.80
2022-11-04T22:45:20.834Z,3.60
2022-11-04T22:50:23.098Z,3.10
2022-11-04T22:55:24.886Z,3.00
2022-11-04T23:00:26.729Z,3.20
2022-11-04T23:05:31.709Z,2.90
2022-11-04T23:10:52.293Z,2.40
2022-11-04T23:16:12.704Z,2.10
2022-11-04T23:21:37.020Z,2.40
2022-11-04T23:26:39.000Z,2.90
2022-11-04T23:31:40.979Z,2.90
2022-11-04T23:37:01.633Z,2.60
2022-11-04T23:42:18.886Z,3.10
2022-11-04T23:47:39.260Z,3.60
2022-11-04T23:52:59.555Z,4.20
2022-11-04T23:58:19.977Z,4.00
